Time;durP1;ratioP1;P1;durP2;ratioP2;P2;SDS_P1;SDS_P2;PMS_P1;PMS_P2;Temp;Humidity;BMP_temperature;BMP_pressure;BME280_temperature;BME280_humidity;BME280_pressure;Samples;Min_cycle;Max_cycle;Signal;HPM_P1;HPM_P2
2023/06/10 00:01:43;;;;;;;;;;;;;;;;;;5094180;28;19928;-88
2023/06/10 00:04:09;;;;;;;;;;;;;;;;;;5094724;28;20382;-88
2023/06/10 00:06:39;;;;;;;;;;;;;;;;;;5094768;28;19924;-87
2023/06/10 00:09:05;;;;;;;;;;;;;;;;;;5076925;28;20431;-87
2023/06/10 00:11:31;;;;;;;;;;;;;;;;;;5094242;28;19920;-88
2023/06/10 00:13:57;;;;;;;;;;;;;;;;;;5094096;28;20418;-88
2023/06/10 00:16:23;;;;;;;;;;;;;;;;;;5094307;28;19927;-88
2023/06/10 00:18:51;;;;;;;;;;;;;;;;;;5077207;28;20423;-87
2023/06/10 00:21:16;;;;;;;;;;;;;;;;;;5094110;28;19924;-88
2023/06/10 00:23:43;;;;;;;;;;;;;;;;;;5093907;28;20347;-88
2023/06/10 00:26:09;;;;;;;;;;;;;;;;;;5077198;28;19920;-88
2023/06/10 00:28:35;;;;;;;;;;;;;;;;;;5093684;28;19935;-87
2023/06/10 00:31:01;;;;;;;;;;;;;;;;;;5093694;28;19920;-88
2023/06/10 00:33:27;;;;;;;;;;;;;;;;;;5093820;28;19927;-88
2023/06/10 00:35:53;;;;;;;;;;;;;;;;;;5093433;28;19920;-87
2023/06/10 00:38:19;;;;;;;;;;;;;;;;;;5093474;28;19920;-87
2023/06/10 00:40:45;;;;;;;;;;;;;;;;;;5093397;28;20170;-88
2023/06/10 00:43:11;;;;;;;;;;;;;;;;;;5076604;28;19967;-87
2023/06/10 00:45:37;;;;;;;;;;;;;;;;;;5093479;28;19969;-88
2023/06/10 00:48:03;;;;;;;;;;;;;;;;;;5093723;28;19977;-88
2023/06/10 00:50:29;;;;;;;;;;;;;;;;;;5098709;28;19969;-88
2023/06/10 00:52:55;;;;;;;;;;;;;;;;;;5076580;28;19920;-88
2023/06/10 00:55:21;;;;;;;;;;;;;;;;;;5093267;28;19924;-88
2023/06/10 00:57:48;;;;;;;;;;;;;;;;;;5076515;28;19920;-88
2023/06/10 01:00:15;;;;;;;;;;;;;;;;;;5106724;28;19920;-87
2023/06/10 01:02:40;;;;;;;;;;;;;;;;;;5059240;28;19949;-88
2023/06/10 01:05:06;;;;;;;;;;;;;;;;;;5059559;28;19922;-87
2023/06/10 01:07:32;;;;;;;;;;;;;;;;;;5072843;28;19976;-88
2023/06/10 01:09:58;;;;;;;;;;;;;;;;;;5097052;28;19924;-88
2023/06/10 01:12:24;;;;;;;;;;;;;;;;;;5062135;28;20392;-87
2023/06/10 01:14:50;;;;;;;;;;;;;;;;;;5113311;28;19927;-86
2023/06/10 01:17:17;;;;;;;;;;;;;;;;;;5099866;28;19931;-87
2023/06/10 01:19:44;;;;;;;;;;;;;;;;;;5088802;28;20448;-88
2023/06/10 01:22:10;;;;;;;;;;;;;;;;;;5112781;28;19931;-88
2023/06/10 01:24:36;;;;;;;;;;;;;;;;;;5113128;28;19919;-87
2023/06/10 01:27:02;;;;;;;;;;;;;;;;;;5105863;28;19924;-88
2023/06/10 01:29:28;;;;;;;;;;;;;;;;;;5086462;28;20361;-87
2023/06/10 01:31:54;;;;;;;;;;;;;;;;;;5113077;28;20376;-88
2023/06/10 01:34:20;;;;;;;;;;;;;;;;;;5113360;28;19943;-88
2023/06/10 01:36:47;;;;;;;;;;;;;;;;;;5108642;28;19923;-88
2023/06/10 01:39:13;;;;;;;;;;;;;;;;;;5092862;28;19956;-88
2023/06/10 01:41:39;;;;;;;;;;;;;;;;;;5105822;28;19927;-87
2023/06/10 01:44:05;;;;;;;;;;;;;;;;;;5113150;28;19919;-88
2023/06/10 01:46:31;;;;;;;;;;;;;;;;;;5110673;28;19920;-88
2023/06/10 01:48:57;;;;;;;;;;;;;;;;;;5081968;28;19919;-88
2023/06/10 01:51:23;;;;;;;;;;;;;;;;;;5112667;28;20300;-88
2023/06/10 01:53:49;;;;;;;;;;;;;;;;;;5112825;28;19989;-88
2023/06/10 01:56:17;;;;;;;;;;;;;;;;;;5096073;28;19919;-88
2023/06/10 01:58:43;;;;;;;;;;;;;;;;;;5107729;28;19924;-88
2023/06/10 02:01:09;;;;;;;;;;;;;;;;;;5058659;28;20301;-87
2023/06/10 02:03:35;;;;;;;;;;;;;;;;;;5058405;28;19924;-88
2023/06/10 02:06:01;;;;;;;;;;;;;;;;;;5075370;28;19920;-88
2023/06/10 02:08:27;;;;;;;;;;;;;;;;;;5059985;28;20347;-88
2023/06/10 02:10:53;;;;;;;;;;;;;;;;;;5112187;28;20014;-87
2023/06/10 02:13:19;;;;;;;;;;;;;;;;;;5094527;28;19981;-88
2023/06/10 02:15:45;;;;;;;;;;;;;;;;;;5112193;28;19920;-87
2023/06/10 02:18:11;;;;;;;;;;;;;;;;;;5110002;28;19927;-87
2023/06/10 02:20:37;;;;;;;;;;;;;;;;;;5111854;28;19923;-88
2023/06/10 02:23:03;;;;;;;;;;;;;;;;;;5112113;28;20065;-88
2023/06/10 02:25:29;;;;;;;;;;;;;;;;;;5112249;28;19931;-88
2023/06/10 02:27:55;;;;;;;;;;;;;;;;;;5100199;28;20273;-88
2023/06/10 02:30:21;;;;;;;;;;;;;;;;;;5058210;28;19920;-88
2023/06/10 02:32:47;;;;;;;;;;;;;;;;;;5074409;28;19930;-88
2023/06/10 02:35:13;;;;;;;;;;;;;;;;;;5058304;28;19971;-89
2023/06/10 02:37:39;;;;;;;;;;;;;;;;;;5065890;28;20324;-87
2023/06/10 02:40:05;;;;;;;;;;;;;;;;;;5057777;28;19930;-88
2023/06/10 02:42:31;;;;;;;;;;;;;;;;;;5057851;28;19930;-88
2023/06/10 02:44:57;;;;;;;;;;;;;;;;;;5058081;28;19920;-88
2023/06/10 02:47:23;;;;;;;;;;;;;;;;;;5075164;28;19924;-88
2023/06/10 02:49:49;;;;;;;;;;;;;;;;;;5076221;28;19968;-88
2023/06/10 02:52:15;;;;;;;;;;;;;;;;;;5094876;28;20373;-88
2023/06/10 02:54:41;;;;;;;;;;;;;;;;;;5111923;28;19919;-88
2023/06/10 02:57:07;;;;;;;;;;;;;;;;;;5107035;28;20041;-88
2023/06/10 02:59:33;;;;;;;;;;;;;;;;;;5099264;28;19924;-88
2023/06/10 03:02:01;;;;;;;;;;;;;;;;;;5090986;28;19928;-89
2023/06/10 03:04:28;;;;;;;;;;;;;;;;;;5092151;28;20307;-87
2023/06/10 03:06:54;;;;;;;;;;;;;;;;;;5091981;28;19927;-88
2023/06/10 03:09:20;;;;;;;;;;;;;;;;;;5076152;28;19920;-87
2023/06/10 03:11:46;;;;;;;;;;;;;;;;;;5074840;28;19978;-87
2023/06/10 03:14:12;;;;;;;;;;;;;;;;;;5057701;28;19927;-87
2023/06/10 03:16:42;;;;;;;;;;;;;;;;;;5075122;28;19920;-87
2023/06/10 03:19:08;;;;;;;;;;;;;;;;;;5076318;28;19926;-88
2023/06/10 03:21:34;;;;;;;;;;;;;;;;;;5099796;28;19928;-88
2023/06/10 03:24:00;;;;;;;;;;;;;;;;;;5092077;28;20296;-87
2023/06/10 03:26:27;;;;;;;;;;;;;;;;;;5092170;28;19943;-88
2023/06/10 03:28:53;;;;;;;;;;;;;;;;;;5092025;28;19931;-87
2023/06/10 03:31:19;;;;;;;;;;;;;;;;;;5100483;28;19920;-88
2023/06/10 03:33:44;;;;;;;;;;;;;;;;;;5112183;28;19920;-88
2023/06/10 03:36:10;;;;;;;;;;;;;;;;;;5112229;28;19924;-88
2023/06/10 03:38:36;;;;;;;;;;;;;;;;;;5112082;28;19923;-88
2023/06/10 03:41:02;;;;;;;;;;;;;;;;;;5092901;28;20015;-88
2023/06/10 03:43:28;;;;;;;;;;;;;;;;;;5092079;28;19947;-88
2023/06/10 03:45:54;;;;;;;;;;;;;;;;;;5095678;28;19927;-89
2023/06/10 03:48:20;;;;;;;;;;;;;;;;;;5095696;28;20116;-88
2023/06/10 03:50:47;;;;;;;;;;;;;;;;;;5098601;28;19930;-89
2023/06/10 03:53:13;;;;;;;;;;;;;;;;;;5115826;28;19919;-88
2023/06/10 03:55:39;;;;;;;;;;;;;;;;;;5115886;28;19927;-88
2023/06/10 03:58:05;;;;;;;;;;;;;;;;;;5098448;28;19920;-87
2023/06/10 04:00:41;;;;;;;;;;;;;;;;;;5113281;28;19920;-88
2023/06/10 04:03:08;;;;;;;;;;;;;;;;;;5077614;28;19928;-88
2023/06/10 04:05:34;;;;;;;;;;;;;;;;;;5061647;28;19924;-88
2023/06/10 04:08:01;;;;;;;;;;;;;;;;;;5066784;28;19926;-88
2023/06/10 04:10:27;;;;;;;;;;;;;;;;;;5114830;28;19927;-86
2023/06/10 04:12:53;;;;;;;;;;;;;;;;;;5061473;28;19924;-88
2023/06/10 04:15:19;;;;;;;;;;;;;;;;;;5078033;28;20337;-87
2023/06/10 04:17:45;;;;;;;;;;;;;;;;;;5064144;28;19993;-87
2023/06/10 04:20:11;;;;;;;;;;;;;;;;;;5077880;28;20308;-88
2023/06/10 04:22:37;;;;;;;;;;;;;;;;;;5095318;28;19935;-88
2023/06/10 04:25:03;;;;;;;;;;;;;;;;;;5077867;28;19924;-88
2023/06/10 04:27:29;;;;;;;;;;;;;;;;;;5096711;28;19950;-88
2023/06/10 04:29:55;;;;;;;;;;;;;;;;;;5114813;28;19930;-87
2023/06/10 04:32:21;;;;;;;;;;;;;;;;;;5098112;28;19966;-87
2023/06/10 04:34:47;;;;;;;;;;;;;;;;;;5098008;28;19959;-88
2023/06/10 04:37:13;;;;;;;;;;;;;;;;;;5097933;28;19946;-88
2023/06/10 04:39:39;;;;;;;;;;;;;;;;;;5095369;28;19927;-87
2023/06/10 04:42:05;;;;;;;;;;;;;;;;;;5094603;28;19931;-89
2023/06/10 04:44:31;;;;;;;;;;;;;;;;;;5113796;28;20010;-89
2023/06/10 04:46:57;;;;;;;;;;;;;;;;;;5114361;28;19971;-86
2023/06/10 04:49:23;;;;;;;;;;;;;;;;;;5097106;28;20311;-88
2023/06/10 04:51:49;;;;;;;;;;;;;;;;;;5093962;28;19926;-88
2023/06/10 04:54:15;;;;;;;;;;;;;;;;;;5094281;28;19920;-88
2023/06/10 04:56:41;;;;;;;;;;;;;;;;;;5094272;28;20332;-88
2023/06/10 04:59:07;;;;;;;;;;;;;;;;;;5108368;28;19965;-88
2023/06/10 05:01:33;;;;;;;;;;;;;;;;;;5097488;28;19924;-88
2023/06/10 05:03:59;;;;;;;;;;;;;;;;;;5095048;28;20045;-88
2023/06/10 05:06:26;;;;;;;;;;;;;;;;;;5057651;28;19924;-87
2023/06/10 05:08:52;;;;;;;;;;;;;;;;;;5066925;28;19942;-87
2023/06/10 05:11:18;;;;;;;;;;;;;;;;;;5065731;28;20014;-87
2023/06/10 05:13:44;;;;;;;;;;;;;;;;;;5085320;28;19980;-86
2023/06/10 05:16:10;;;;;;;;;;;;;;;;;;5067955;28;19927;-88
2023/06/10 05:18:36;;;;;;;;;;;;;;;;;;5069097;28;19924;-88
2023/06/10 05:21:02;;;;;;;;;;;;;;;;;;5104857;28;20300;-88
2023/06/10 05:23:28;;;;;;;;;;;;;;;;;;5077440;28;19924;-88
2023/06/10 05:25:54;;;;;;;;;;;;;;;;;;5090387;28;19926;-88
2023/06/10 05:28:20;;;;;;;;;;;;;;;;;;5063386;28;20536;-89
2023/06/10 05:30:46;;;;;;;;;;;;;;;;;;5080036;28;20143;-88
2023/06/10 05:33:12;;;;;;;;;;;;;;;;;;5086618;28;19928;-88
2023/06/10 05:35:38;;;;;;;;;;;;;;;;;;5089721;28;20372;-88
2023/06/10 05:38:04;;;;;;;;;;;;;;;;;;5093403;28;19920;-87
2023/06/10 05:40:30;;;;;;;;;;;;;;;;;;5075925;28;19973;-87
2023/06/10 05:42:56;;;;;;;;;;;;;;;;;;5070976;28;19931;-87
2023/06/10 05:45:22;;;;;;;;;;;;;;;;;;5113041;28;20447;-86
2023/06/10 05:47:47;;;;;;;;;;;;;;;;;;5112861;28;19920;-87
2023/06/10 05:50:13;;;;;;;;;;;;;;;;;;5088063;28;19930;-87
2023/06/10 05:52:42;;;;;;;;;;;;;;;;;;5062829;28;20424;-86
2023/06/10 05:55:08;;;;;;;;;;;;;;;;;;5093913;28;19920;-88
2023/06/10 05:57:34;;;;;;;;;;;;;;;;;;5081129;28;19919;-87
2023/06/10 06:00:00;;;;;;;;;;;;;;;;;;5093055;28;19928;-87
2023/06/10 06:02:26;;;;;;;;;;;;;;;;;;5086326;28;19937;-86
2023/06/10 06:04:53;;;;;;;;;;;;;;;;;;5087373;28;19920;-86
2023/06/10 06:07:20;;;;;;;;;;;;;;;;;;5061338;28;20005;-88
2023/06/10 06:09:46;;;;;;;;;;;;;;;;;;5059716;28;19927;-87
2023/06/10 06:12:12;;;;;;;;;;;;;;;;;;5093751;28;19921;-88
2023/06/10 06:14:41;;;;;;;;;;;;;;;;;;5095807;28;19981;-88
2023/06/10 06:17:07;;;;;;;;;;;;;;;;;;5090339;28;19921;-87
2023/06/10 06:19:33;;;;;;;;;;;;;;;;;;5060580;28;19966;-87
2023/06/10 06:21:58;;;;;;;;;;;;;;;;;;5086688;28;19928;-87
2023/06/10 06:24:24;;;;;;;;;;;;;;;;;;5063363;28;20438;-88
2023/06/10 06:26:50;;;;;;;;;;;;;;;;;;5058614;28;19920;-86
2023/06/10 06:29:16;;;;;;;;;;;;;;;;;;5059691;28;19943;-86
2023/06/10 06:31:42;;;;;;;;;;;;;;;;;;5074367;28;19924;-87
2023/06/10 06:34:08;;;;;;;;;;;;;;;;;;5062830;28;20028;-87
2023/06/10 06:36:34;;;;;;;;;;;;;;;;;;5060798;28;19920;-86
2023/06/10 06:39:00;;;;;;;;;;;;;;;;;;5069833;28;20010;-86
2023/06/10 06:41:26;;;;;;;;;;;;;;;;;;5059150;28;20014;-86
2023/06/10 06:43:51;;;;;;;;;;;;;;;;;;5076112;28;19927;-87
2023/06/10 06:46:17;;;;;;;;;;;;;;;;;;5086466;28;19947;-87
2023/06/10 06:48:43;;;;;;;;;;;;;;;;;;5058270;28;19928;-87
2023/06/10 06:51:09;;;;;;;;;;;;;;;;;;5063386;28;19927;-87
2023/06/10 06:53:36;;;;;;;;;;;;;;;;;;5059529;28;19928;-88
2023/06/10 06:56:02;;;;;;;;;;;;;;;;;;5083451;28;20011;-87
2023/06/10 06:58:28;;;;;;;;;;;;;;;;;;5059346;28;20389;-85
2023/06/10 07:00:54;;;;;;;;;;;;;;;;;;5074454;28;19963;-85
2023/06/10 07:03:20;;;;;;;;;;;;;;;;;;5056994;28;20304;-85
2023/06/10 07:05:47;;;;;;;;;;;;;;;;;;5055606;28;19932;-86
2023/06/10 07:08:12;;;;;;;;;;;;;;;;;;5055595;28;19931;-85
2023/06/10 07:10:38;;;;;;;;;;;;;;;;;;5057374;28;19920;-83
2023/06/10 07:13:04;;;;;;;;;;;;;;;;;;5108097;28;19924;-83
2023/06/10 07:15:30;;;;;;;;;;;;;;;;;;5106823;28;19950;-83
2023/06/10 07:17:56;;;;;;;;;;;;;;;;;;5057269;28;19928;-83
2023/06/10 07:20:22;;;;;;;;;;;;;;;;;;5059650;28;19926;-83
2023/06/10 07:22:48;;;;;;;;;;;;;;;;;;5112403;27;19977;-83
2023/06/10 07:25:15;;;;;;;;;;;;;;;;;;5061115;28;20292;-84
2023/06/10 07:27:41;;;;;;;;;;;;;;;;;;5111801;28;19920;-84
2023/06/10 07:30:08;;;;;;;;;;;;;;;;;;5061348;28;20369;-84
2023/06/10 07:32:34;;;;;;;;;;;;;;;;;;5114121;27;19931;-84
2023/06/10 07:35:00;;;;;;;;;;;;;;;;;;5094796;28;19920;-84
2023/06/10 07:37:26;;;;;;;;;;;;;;;;;;5077772;28;19967;-84
2023/06/10 07:39:52;;;;;;;;;;;;;;;;;;5062458;28;19943;-83
2023/06/10 07:42:17;;;;;;;;;;;;;;;;;;5096377;28;19924;-84
2023/06/10 07:44:43;;;;;;;;;;;;;;;;;;5061504;28;20383;-84
2023/06/10 07:47:09;;;;;;;;;;;;;;;;;;5061160;28;19924;-83
2023/06/10 07:49:35;;;;;;;;;;;;;;;;;;5060231;28;19920;-83
2023/06/10 07:52:01;;;;;;;;;;;;;;;;;;5063877;28;19975;-84
2023/06/10 07:54:27;;;;;;;;;;;;;;;;;;5060737;28;19958;-84
2023/06/10 07:56:53;;;;;;;;;;;;;;;;;;5060603;28;19932;-84
2023/06/10 07:59:21;;;;;;;;;;;;;;;;;;5060381;28;21257;-84
2023/06/10 08:01:47;;;;;;;;;;;;;;;;;;5060451;28;19955;-84
2023/06/10 08:04:13;;;;;;;;;;;;;;;;;;5060476;28;19973;-84
2023/06/10 08:06:39;;;;;;;;;;;;;;;;;;5060943;28;20270;-84
2023/06/10 08:09:04;;;;;;;;;;;;;;;;;;5061249;28;19920;-84
2023/06/10 08:11:30;;;;;;;;;;;;;;;;;;5060245;28;19974;-84
2023/06/10 08:13:56;;;;;;;;;;;;;;;;;;5060331;28;20266;-84
2023/06/10 08:16:22;;;;;;;;;;;;;;;;;;5060048;28;19936;-84
2023/06/10 08:18:50;;;;;;;;;;;;;;;;;;5110959;28;19920;-84
2023/06/10 08:21:16;;;;;;;;;;;;;;;;;;5080666;28;19971;-84
2023/06/10 08:23:42;;;;;;;;;;;;;;;;;;5060116;28;20054;-84
2023/06/10 08:26:07;;;;;;;;;;;;;;;;;;5063783;28;19920;-84
2023/06/10 08:28:33;;;;;;;;;;;;;;;;;;5059936;28;19924;-84
2023/06/10 08:30:59;;;;;;;;;;;;;;;;;;5062362;28;19927;-84
2023/06/10 08:33:25;;;;;;;;;;;;;;;;;;5060063;28;19924;-84
2023/06/10 08:35:51;;;;;;;;;;;;;;;;;;5060031;28;20053;-84
2023/06/10 08:38:17;;;;;;;;;;;;;;;;;;5059887;28;19924;-84
2023/06/10 08:40:43;;;;;;;;;;;;;;;;;;5060621;28;19920;-84
2023/06/10 08:43:09;;;;;;;;;;;;;;;;;;5059925;28;20343;-84
2023/06/10 08:45:35;;;;;;;;;;;;;;;;;;5059697;28;19942;-84
2023/06/10 08:48:01;;;;;;;;;;;;;;;;;;5076461;28;19920;-84
2023/06/10 08:50:28;;;;;;;;;;;;;;;;;;5062988;28;19926;-84
2023/06/10 08:52:54;;;;;;;;;;;;;;;;;;5059522;28;20014;-84
2023/06/10 08:55:19;;;;;;;;;;;;;;;;;;5061578;28;19967;-84
2023/06/10 08:57:47;;;;;;;;;;;;;;;;;;5059336;28;19924;-84
2023/06/10 09:00:13;;;;;;;;;;;;;;;;;;5059537;28;19927;-84
2023/06/10 09:02:39;;;;;;;;;;;;;;;;;;5061027;28;19924;-84
2023/06/10 09:05:05;;;;;;;;;;;;;;;;;;5059384;28;20015;-84
2023/06/10 09:07:31;;;;;;;;;;;;;;;;;;5080397;28;19920;-84
2023/06/10 09:09:57;;;;;;;;;;;;;;;;;;5060808;28;19920;-84
2023/06/10 09:12:23;;;;;;;;;;;;;;;;;;5076526;28;20331;-84
2023/06/10 09:14:49;;;;;;;;;;;;;;;;;;5059435;28;19927;-84
2023/06/10 09:17:15;;;;;;;;;;;;;;;;;;5059595;28;19920;-84
2023/06/10 09:19:41;;;;;;;;;;;;;;;;;;5111711;27;20403;-84
2023/06/10 09:22:07;;;;;;;;;;;;;;;;;;5077492;28;19920;-84
2023/06/10 09:24:33;;;;;;;;;;;;;;;;;;5058807;28;19924;-85
2023/06/10 09:26:59;;;;;;;;;;;;;;;;;;5058713;28;19920;-86
2023/06/10 09:29:25;;;;;;;;;;;;;;;;;;5059272;28;19958;-85
2023/06/10 09:31:51;;;;;;;;;;;;;;;;;;5076218;28;19920;-85
2023/06/10 09:34:17;;;;;;;;;;;;;;;;;;5096743;28;19978;-85
2023/06/10 09:36:43;;;;;;;;;;;;;;;;;;5098007;28;20415;-85
2023/06/10 09:39:08;;;;;;;;;;;;;;;;;;5058813;28;19920;-86
2023/06/10 09:41:37;;;;;;;;;;;;;;;;;;5057592;28;20045;-86
2023/06/10 09:44:03;;;;;;;;;;;;;;;;;;5058226;28;19932;-86
2023/06/10 09:46:29;;;;;;;;;;;;;;;;;;5058060;28;19927;-86
2023/06/10 09:48:55;;;;;;;;;;;;;;;;;;5058450;28;19927;-86
2023/06/10 09:51:22;;;;;;;;;;;;;;;;;;5057770;28;19942;-86
2023/06/10 09:53:50;;;;;;;;;;;;;;;;;;5061977;28;19920;-86
2023/06/10 09:56:16;;;;;;;;;;;;;;;;;;5058447;28;19920;-86
2023/06/10 09:58:43;;;;;;;;;;;;;;;;;;5058354;28;19969;-86
2023/06/10 10:01:09;;;;;;;;;;;;;;;;;;5059523;28;19981;-86
2023/06/10 10:03:35;;;;;;;;;;;;;;;;;;5058490;28;19977;-86
2023/06/10 10:06:01;;;;;;;;;;;;;;;;;;5075134;28;19920;-88
2023/06/10 10:08:27;;;;;;;;;;;;;;;;;;5061550;28;19970;-88
2023/06/10 10:10:53;;;;;;;;;;;;;;;;;;5057817;28;19927;-87
2023/06/10 10:13:18;;;;;;;;;;;;;;;;;;5058285;28;20395;-89
2023/06/10 10:15:44;;;;;;;;;;;;;;;;;;5075608;28;19931;-88
2023/06/10 10:18:11;;;;;;;;;;;;;;;;;;5060351;28;20403;-88
2023/06/10 10:20:36;;;;;;;;;;;;;;;;;;5058979;28;19921;-88
2023/06/10 10:23:02;;;;;;;;;;;;;;;;;;5062658;28;20430;-89
2023/06/10 10:25:29;;;;;;;;;;;;;;;;;;5059117;28;19924;-88
2023/06/10 10:27:55;;;;;;;;;;;;;;;;;;5059103;28;20224;-89
2023/06/10 10:30:21;;;;;;;;;;;;;;;;;;5076231;28;19973;-88
2023/06/10 10:32:48;;;;;;;;;;;;;;;;;;5058746;28;20280;-90
2023/06/10 10:35:14;;;;;;;;;;;;;;;;;;5058353;28;19974;-89
2023/06/10 10:37:40;;;;;;;;;;;;;;;;;;5059040;28;19920;-89
2023/06/10 10:40:06;;;;;;;;;;;;;;;;;;5059697;28;19920;-89
2023/06/10 10:42:32;;;;;;;;;;;;;;;;;;5108806;27;19994;-88
2023/06/10 10:44:58;;;;;;;;;;;;;;;;;;5059727;28;20007;-89
2023/06/10 10:47:24;;;;;;;;;;;;;;;;;;5058136;28;19928;-87
2023/06/10 10:49:50;;;;;;;;;;;;;;;;;;5058081;28;20433;-89
2023/06/10 10:52:15;;;;;;;;;;;;;;;;;;5074941;28;19920;-89
2023/06/10 10:54:41;;;;;;;;;;;;;;;;;;5058642;28;19987;-88
2023/06/10 10:57:07;;;;;;;;;;;;;;;;;;5062556;28;19927;-89
2023/06/10 10:59:33;;;;;;;;;;;;;;;;;;5057974;28;19920;-89
2023/06/10 11:01:59;;;;;;;;;;;;;;;;;;5058237;28;20006;-89
2023/06/10 11:04:25;;;;;;;;;;;;;;;;;;5058110;28;19974;-90
2023/06/10 11:06:51;;;;;;;;;;;;;;;;;;5075363;28;19967;-89
2023/06/10 11:09:17;;;;;;;;;;;;;;;;;;5075938;28;19930;-89
2023/06/10 11:11:42;;;;;;;;;;;;;;;;;;5077358;28;19927;-88
2023/06/10 11:14:09;;;;;;;;;;;;;;;;;;5058754;28;19920;-89
2023/06/10 11:16:35;;;;;;;;;;;;;;;;;;5074970;28;19965;-89
2023/06/10 11:19:01;;;;;;;;;;;;;;;;;;5063369;28;20372;-90
2023/06/10 11:21:27;;;;;;;;;;;;;;;;;;5108998;28;19949;-90
2023/06/10 11:23:53;;;;;;;;;;;;;;;;;;5058151;28;19926;-88
2023/06/10 11:26:26;;;;;;;;;;;;;;;;;;5058015;28;19928;-88
2023/06/10 11:28:52;;;;;;;;;;;;;;;;;;5054737;28;20007;-90
2023/06/10 11:31:18;;;;;;;;;;;;;;;;;;5058092;28;19959;-88
2023/06/10 11:33:44;;;;;;;;;;;;;;;;;;5074470;28;19968;-90
2023/06/10 11:36:10;;;;;;;;;;;;;;;;;;5058015;28;19920;-88
2023/06/10 11:38:35;;;;;;;;;;;;;;;;;;5074945;28;19927;-89
2023/06/10 11:41:01;;;;;;;;;;;;;;;;;;5061101;28;20446;-89
2023/06/10 11:43:27;;;;;;;;;;;;;;;;;;5059684;28;19979;-88
2023/06/10 11:45:53;;;;;;;;;;;;;;;;;;5058174;28;20280;-90
2023/06/10 11:48:19;;;;;;;;;;;;;;;;;;5058320;28;19931;-88
2023/06/10 11:50:45;;;;;;;;;;;;;;;;;;5057141;28;19920;-90
2023/06/10 11:53:11;;;;;;;;;;;;;;;;;;5057935;28;20369;-89
2023/06/10 11:55:37;;;;;;;;;;;;;;;;;;5091690;28;19969;-88
2023/06/10 11:58:02;;;;;;;;;;;;;;;;;;5091494;28;20381;-88
2023/06/10 12:00:28;;;;;;;;;;;;;;;;;;5058908;28;19931;-90
2023/06/10 12:02:55;;;;;;;;;;;;;;;;;;5057486;28;20360;-89
2023/06/10 12:05:21;;;;;;;;;;;;;;;;;;5059283;28;19924;-89
2023/06/10 12:07:47;;;;;;;;;;;;;;;;;;5064889;28;19963;-89
2023/06/10 12:10:13;;;;;;;;;;;;;;;;;;5062049;28;19927;-89
2023/06/10 12:12:39;;;;;;;;;;;;;;;;;;5095873;28;19928;-90
2023/06/10 12:15:05;;;;;;;;;;;;;;;;;;5061130;28;20384;-90
2023/06/10 12:17:36;;;;;;;;;;;;;;;;;;5061346;28;20270;-90
2023/06/10 12:20:03;;;;;;;;;;;;;;;;;;5061820;28;20270;-89
2023/06/10 12:22:29;;;;;;;;;;;;;;;;;;5111538;28;20058;-89
2023/06/10 12:24:55;;;;;;;;;;;;;;;;;;5094542;28;19966;-89
2023/06/10 12:27:21;;;;;;;;;;;;;;;;;;5054806;28;19984;-89
2023/06/10 12:29:47;;;;;;;;;;;;;;;;;;5056868;28;19920;-89
2023/06/10 12:32:15;;;;;;;;;;;;;;;;;;5096726;28;19926;-88
2023/06/10 12:34:40;;;;;;;;;;;;;;;;;;5094241;28;19976;-89
2023/06/10 12:37:06;;;;;;;;;;;;;;;;;;5110677;28;19960;-89
2023/06/10 12:39:32;;;;;;;;;;;;;;;;;;5076186;28;20327;-88
2023/06/10 12:41:58;;;;;;;;;;;;;;;;;;5090243;28;20031;-91
2023/06/10 12:44:24;;;;;;;;;;;;;;;;;;5060582;28;20388;-89
2023/06/10 12:46:50;;;;;;;;;;;;;;;;;;5060515;28;19985;-89
2023/06/10 12:49:16;;;;;;;;;;;;;;;;;;5060630;28;19920;-89
2023/06/10 12:51:42;;;;;;;;;;;;;;;;;;5062467;28;19943;-90
2023/06/10 12:54:08;;;;;;;;;;;;;;;;;;5060995;28;19920;-90
2023/06/10 12:56:34;;;;;;;;;;;;;;;;;;5060612;28;19924;-89
2023/06/10 12:59:00;;;;;;;;;;;;;;;;;;5077369;28;20277;-88
2023/06/10 13:01:26;;;;;;;;;;;;;;;;;;5106317;27;19920;-89
2023/06/10 13:03:52;;;;;;;;;;;;;;;;;;5060043;28;19924;-88
2023/06/10 13:06:18;;;;;;;;;;;;;;;;;;5058653;28;20323;-92
2023/06/10 13:08:47;;;;;;;;;;;;;;;;;;5062579;28;19927;-89
2023/06/10 13:11:13;;;;;;;;;;;;;;;;;;5106278;28;19954;-90
2023/06/10 13:13:39;;;;;;;;;;;;;;;;;;5075812;28;20011;-89
2023/06/10 13:16:05;;;;;;;;;;;;;;;;;;5058451;28;20023;-89
2023/06/10 13:18:37;;;;;;;;;;;;;;;;;;5058250;28;19931;-89
2023/06/10 13:21:03;;;;;;;;;;;;;;;;;;5092326;28;19927;-89
2023/06/10 13:23:29;;;;;;;;;;;;;;;;;;5058087;28;19924;-88
2023/06/10 13:25:55;;;;;;;;;;;;;;;;;;5058053;28;19920;-87
2023/06/10 13:28:21;;;;;;;;;;;;;;;;;;5076954;28;19924;-87
2023/06/10 13:30:47;;;;;;;;;;;;;;;;;;5059463;28;20287;-88
2023/06/10 13:33:13;;;;;;;;;;;;;;;;;;5059163;28;19920;-87
2023/06/10 13:35:39;;;;;;;;;;;;;;;;;;5059252;28;19943;-90
2023/06/10 13:38:05;;;;;;;;;;;;;;;;;;5059827;28;20376;-86
2023/06/10 13:40:31;;;;;;;;;;;;;;;;;;5058555;28;19978;-87
2023/06/10 13:42:57;;;;;;;;;;;;;;;;;;5061207;28;19924;-89
2023/06/10 13:45:22;;;;;;;;;;;;;;;;;;5094864;28;19926;-87
2023/06/10 13:47:48;;;;;;;;;;;;;;;;;;5060826;28;19920;-89
2023/06/10 13:50:14;;;;;;;;;;;;;;;;;;5057111;28;20300;-89
2023/06/10 13:52:40;;;;;;;;;;;;;;;;;;5074032;28;20003;-87
2023/06/10 13:55:06;;;;;;;;;;;;;;;;;;5074261;28;19963;-88
2023/06/10 13:57:32;;;;;;;;;;;;;;;;;;5090223;28;19998;-87
2023/06/10 13:59:58;;;;;;;;;;;;;;;;;;5091766;28;19920;-89
2023/06/10 14:02:24;;;;;;;;;;;;;;;;;;5096227;28;20010;-89
2023/06/10 14:04:50;;;;;;;;;;;;;;;;;;5057694;28;19919;-89
2023/06/10 14:07:16;;;;;;;;;;;;;;;;;;5081547;28;20300;-88
2023/06/10 14:09:42;;;;;;;;;;;;;;;;;;5062627;28;19924;-88
2023/06/10 14:12:09;;;;;;;;;;;;;;;;;;5109366;28;19927;-87
2023/06/10 14:14:36;;;;;;;;;;;;;;;;;;5060082;28;19971;-89
2023/06/10 14:17:03;;;;;;;;;;;;;;;;;;5079475;28;19928;-86
2023/06/10 14:19:29;;;;;;;;;;;;;;;;;;5057647;28;19924;-87
2023/06/10 14:21:55;;;;;;;;;;;;;;;;;;5074381;28;19920;-89
2023/06/10 14:24:21;;;;;;;;;;;;;;;;;;5058048;28;20339;-87
2023/06/10 14:26:47;;;;;;;;;;;;;;;;;;5057624;28;19974;-87
2023/06/10 14:29:18;;;;;;;;;;;;;;;;;;5057726;28;19930;-88
2023/06/10 14:31:43;;;;;;;;;;;;;;;;;;5058083;28;20361;-88
2023/06/10 14:34:09;;;;;;;;;;;;;;;;;;5058195;28;19928;-89
2023/06/10 14:36:36;;;;;;;;;;;;;;;;;;5058510;28;19920;-88
2023/06/10 14:39:02;;;;;;;;;;;;;;;;;;5109558;27;19920;-87
2023/06/10 14:41:28;;;;;;;;;;;;;;;;;;5057886;28;19927;-88
2023/06/10 14:43:54;;;;;;;;;;;;;;;;;;5108434;28;20381;-86
2023/06/10 14:46:23;;;;;;;;;;;;;;;;;;5057632;28;19920;-87
2023/06/10 14:48:50;;;;;;;;;;;;;;;;;;5094168;28;19977;-86
2023/06/10 14:51:16;;;;;;;;;;;;;;;;;;5057545;28;20026;-87
2023/06/10 14:53:42;;;;;;;;;;;;;;;;;;5057797;28;19971;-87
2023/06/10 14:56:08;;;;;;;;;;;;;;;;;;5059116;28;20292;-87
2023/06/10 14:58:34;;;;;;;;;;;;;;;;;;5090761;28;19928;-89
2023/06/10 15:01:00;;;;;;;;;;;;;;;;;;5057416;28;19920;-87
2023/06/10 15:03:26;;;;;;;;;;;;;;;;;;5090252;28;19970;-88
2023/06/10 15:05:52;;;;;;;;;;;;;;;;;;5074218;28;19920;-87
2023/06/10 15:08:18;;;;;;;;;;;;;;;;;;5076944;28;20019;-88
2023/06/10 15:10:44;;;;;;;;;;;;;;;;;;5087068;28;19920;-88
2023/06/10 15:13:10;;;;;;;;;;;;;;;;;;5061099;28;19973;-88
2023/06/10 15:15:36;;;;;;;;;;;;;;;;;;5091289;28;19924;-88
2023/06/10 15:18:02;;;;;;;;;;;;;;;;;;5110053;28;20035;-88
2023/06/10 15:20:28;;;;;;;;;;;;;;;;;;5057217;28;20044;-87
2023/06/10 15:22:53;;;;;;;;;;;;;;;;;;5074384;28;19932;-87
2023/06/10 15:25:20;;;;;;;;;;;;;;;;;;5058446;28;19943;-86
2023/06/10 15:27:46;;;;;;;;;;;;;;;;;;5074260;28;20360;-87
2023/06/10 15:30:12;;;;;;;;;;;;;;;;;;5057675;28;19974;-87
2023/06/10 15:32:37;;;;;;;;;;;;;;;;;;5057546;28;19937;-89
2023/06/10 15:35:04;;;;;;;;;;;;;;;;;;5057491;28;19920;-87
2023/06/10 15:37:29;;;;;;;;;;;;;;;;;;5062114;28;19956;-88
2023/06/10 15:39:55;;;;;;;;;;;;;;;;;;5076374;28;19974;-87
2023/06/10 15:42:21;;;;;;;;;;;;;;;;;;5061050;28;19924;-87
2023/06/10 15:44:47;;;;;;;;;;;;;;;;;;5061602;28;20303;-88
2023/06/10 15:47:13;;;;;;;;;;;;;;;;;;5066130;28;19920;-88
2023/06/10 15:49:39;;;;;;;;;;;;;;;;;;5061156;28;19931;-89
2023/06/10 15:52:05;;;;;;;;;;;;;;;;;;5061185;28;20361;-87
2023/06/10 15:54:31;;;;;;;;;;;;;;;;;;5061450;28;19920;-88
2023/06/10 15:56:57;;;;;;;;;;;;;;;;;;5064194;28;19939;-87
2023/06/10 15:59:23;;;;;;;;;;;;;;;;;;5061192;28;19920;-88
2023/06/10 16:01:48;;;;;;;;;;;;;;;;;;5063507;28;19943;-87
2023/06/10 16:04:14;;;;;;;;;;;;;;;;;;5060960;28;19940;-87
2023/06/10 16:06:40;;;;;;;;;;;;;;;;;;5080402;28;20337;-88
2023/06/10 16:09:06;;;;;;;;;;;;;;;;;;5060882;28;19946;-89
2023/06/10 16:11:32;;;;;;;;;;;;;;;;;;5060706;28;19946;-88
2023/06/10 16:13:58;;;;;;;;;;;;;;;;;;5060988;28;20178;-88
2023/06/10 16:16:24;;;;;;;;;;;;;;;;;;5078615;28;19931;-88
2023/06/10 16:18:50;;;;;;;;;;;;;;;;;;5060837;28;20220;-88
2023/06/10 16:21:16;;;;;;;;;;;;;;;;;;5060749;28;19920;-88
2023/06/10 16:23:42;;;;;;;;;;;;;;;;;;5111191;28;20019;-89
2023/06/10 16:26:08;;;;;;;;;;;;;;;;;;5061086;28;19928;-89
2023/06/10 16:28:34;;;;;;;;;;;;;;;;;;5061132;28;20187;-88
2023/06/10 16:31:00;;;;;;;;;;;;;;;;;;5060396;28;19920;-88
2023/06/10 16:33:26;;;;;;;;;;;;;;;;;;5111411;28;20054;-88
2023/06/10 16:35:52;;;;;;;;;;;;;;;;;;5060351;28;20349;-88
2023/06/10 16:38:17;;;;;;;;;;;;;;;;;;5093842;28;19924;-88